Weather reports worldwide

Advertisment
Grazalema, Spain (8455): temperature & dewpoint: 16.09.2018 23:00:00 - 22.09.2018 23:00:00 (CEST)Grazalema, Spain (8455): wind speed & gusts: 16.09.2018 23:00:00 - 22.09.2018 23:00:00 (CEST)Grazalema, Spain (8455): wind direction: 16.09.2018 23:00:00 - 22.09.2018 23:00:00 (CEST)Grazalema, Spain (8455): precipitation: 16.09.2018 23:00:00 - 22.09.2018 23:00:00 (CEST)
Date & Time tt [°C] td [°C] ff [km/h] ff [kn] fx [km/h] fx [kn] dd rr [mm]
22.09.2018 23:00:00 21,8 8,3 3 1 19 10 E 0,0
22.09.2018 22:00:00 24,4 9,6 13 7 26 14 E 0,0
22.09.2018 21:00:00 24,1 10,4 12 6 26 14 ENE 0,0
22.09.2018 20:00:00 24,4 10,3 9 5 20 11 ENE -
22.09.2018 19:00:00 25,5 11,7 10 5 20 11 ENE 0,0
22.09.2018 18:00:00 26,7 12,7 10 5 24 13 ENE 0,0
22.09.2018 17:00:00 27,3 12,8 11 6 30 16 ENE 0,0
22.09.2018 16:00:00 28,5 13,2 6 4 24 13 ENE 0,0
22.09.2018 15:00:00 29,1 13,0 9 5 28 15 ENE 0,0
22.09.2018 14:00:00 28,9 13,2 9 5 24 13 E -
22.09.2018 13:00:00 27,6 12,4 11 6 26 14 ENE 0,0
22.09.2018 12:00:00 27,1 12,3 8 4 19 11 ENE 0,0
22.09.2018 11:00:00 26,2 11,9 8 4 15 8 ENE 0,0
22.09.2018 10:00:00 24,9 12,1 4 2 10 5 ENE 0,0
22.09.2018 09:00:00 19,5 9,9 4 2 10 5 W 0,0
22.09.2018 08:00:00 19,3 8,0 1 1 14 8 W -
22.09.2018 07:00:00 23,1 9,2 5 3 17 9 E 0,0
22.09.2018 06:00:00 23,0 8,7 7 4 16 9 E 0,0
22.09.2018 05:00:00 21,9 8,0 6 4 15 8 E 0,0
22.09.2018 04:00:00 17,5 9,9 4 2 11 6 W 0,0
22.09.2018 03:00:00 16,8 11,9 8 4 12 7 W 0,0
22.09.2018 02:00:00 17,0 12,5 7 4 11 6 W -
22.09.2018 01:00:00 17,2 12,7 8 4 10 6 W 0,0
22.09.2018 00:00:00 17,7 13,3 8 4 10 5 W 0,0
21.09.2018 23:00:00 18,5 13,6 7 4 13 7 W 0,0
21.09.2018 22:00:00 19,5 13,7 6 4 12 7 W 0,0
21.09.2018 21:00:00 19,7 13,9 6 3 11 6 W 0,0
21.09.2018 20:00:00 22,1 14,5 5 3 14 7 W -
21.09.2018 19:00:00 25,1 14,2 4 2 15 8 WSW 0,0
21.09.2018 18:00:00 25,9 14,0 4 2 15 8 WSW 0,0
21.09.2018 17:00:00 26,4 13,6 5 3 11 6 W 0,0
21.09.2018 16:00:00 27,0 13,0 2 1 14 7 ENE 0,0
21.09.2018 15:00:00 27,7 13,9 2 1 16 8 SW 0,0
21.09.2018 14:00:00 25,6 13,2 4 2 16 9 W -
21.09.2018 13:00:00 27,4 13,0 4 2 15 8 E 0,0
21.09.2018 12:00:00 26,1 12,2 4 2 13 7 ENE 0,0
21.09.2018 11:00:00 24,5 11,1 3 2 9 5 ENE 0,0
21.09.2018 10:00:00 21,7 13,6 1 0 9 5 WNW 0,0
21.09.2018 09:00:00 16,6 11,9 7 4 10 5 W 0,0
21.09.2018 08:00:00 14,6 10,2 7 4 11 6 W -
21.09.2018 07:00:00 14,7 9,9 7 4 10 6 W 0,0
21.09.2018 06:00:00 15,4 9,9 7 4 12 7 W 0,0
21.09.2018 05:00:00 15,3 9,8 7 4 12 6 W 0,0
21.09.2018 04:00:00 15,4 10,2 6 3 10 6 W 0,0
21.09.2018 03:00:00 15,3 10,0 6 3 10 6 W 0,0
21.09.2018 02:00:00 15,5 10,0 6 4 12 6 W -
21.09.2018 01:00:00 15,7 10,4 9 5 12 7 W 0,0
21.09.2018 00:00:00 16,1 11,4 8 4 12 6 W 0,0
20.09.2018 23:00:00 16,5 12,2 8 4 11 6 W 0,0
20.09.2018 22:00:00 17,0 13,0 6 3 10 5 W 0,0
20.09.2018 21:00:00 18,6 14,0 5 3 10 5 W 0,0
20.09.2018 20:00:00 22,1 15,7 5 3 12 6 W -
20.09.2018 19:00:00 24,5 11,8 3 2 13 7 SSE 0,0
20.09.2018 18:00:00 25,1 13,4 5 3 22 12 E 0,0
20.09.2018 17:00:00 25,4 12,2 9 5 23 12 ENE 0,0
20.09.2018 16:00:00 26,6 13,4 5 3 19 10 ESE 0,0
20.09.2018 15:00:00 25,9 15,0 11 6 25 14 ENE 0,0
20.09.2018 14:00:00 25,8 15,5 11 6 24 13 ENE -
20.09.2018 13:00:00 25,5 15,5 9 5 24 13 E 0,0
20.09.2018 12:00:00 24,5 14,6 5 3 17 9 NE 0,0
20.09.2018 11:00:00 23,8 13,7 4 2 24 13 NE 0,0
20.09.2018 10:00:00 22,2 13,3 3 2 16 8 ENE 0,0
20.09.2018 09:00:00 17,4 12,7 3 1 11 6 W 0,0
20.09.2018 08:00:00 15,6 10,8 7 4 12 6 W -
20.09.2018 07:00:00 16,9 10,5 4 2 12 6 W 0,0
20.09.2018 06:00:00 18,1 10,6 2 1 10 6 ENE 0,0
20.09.2018 05:00:00 16,7 10,0 3 2 13 7 WNW 0,0
20.09.2018 04:00:00 18,5 11,6 1 1 13 7 SE 0,0
20.09.2018 03:00:00 17,5 12,4 4 2 10 6 W 0,0
20.09.2018 02:00:00 18,3 13,0 3 2 14 8 SSW -
20.09.2018 01:00:00 17,0 13,4 8 4 11 6 W 0,0
20.09.2018 00:00:00 17,5 13,7 8 4 11 6 W 0,0
19.09.2018 23:00:00 17,9 13,9 7 4 11 6 W 0,0
19.09.2018 22:00:00 19,0 14,2 6 3 11 6 W 0,0
19.09.2018 21:00:00 19,9 13,6 7 4 10 6 WNW 0,0
19.09.2018 20:00:00 22,9 13,9 4 2 10 6 W -
19.09.2018 19:00:00 24,7 14,8 5 3 11 6 W 0,0
19.09.2018 18:00:00 25,0 14,1 4 2 12 7 W 0,0
19.09.2018 17:00:00 25,2 14,9 5 3 16 8 WSW 0,0
19.09.2018 16:00:00 25,8 15,2 5 3 16 9 W 0,0
19.09.2018 15:00:00 24,8 16,0 4 2 12 7 W 0,0
19.09.2018 14:00:00 24,6 15,8 4 2 13 7 WSW -
19.09.2018 13:00:00 24,4 15,3 4 2 13 7 WSW 0,0
19.09.2018 12:00:00 26,0 15,1 4 2 14 7 E 0,0
19.09.2018 11:00:00 24,5 16,0 4 2 9 5 ENE 0,0
19.09.2018 10:00:00 22,4 16,4 2 1 7 4 ENE 0,0
19.09.2018 09:00:00 17,2 15,2 5 3 8 5 W 0,0
19.09.2018 08:00:00 15,5 13,6 4 2 10 5 W -
19.09.2018 07:00:00 16,2 13,7 8 4 13 7 W 0,0
19.09.2018 06:00:00 16,8 14,2 8 4 11 6 W 0,0
19.09.2018 05:00:00 16,5 14,3 6 3 10 5 W 0,0
19.09.2018 04:00:00 16,8 14,6 6 3 10 6 W 0,0
19.09.2018 03:00:00 17,1 14,9 6 4 11 6 W 0,0
19.09.2018 02:00:00 16,8 14,4 4 2 9 5 W -
19.09.2018 01:00:00 16,8 14,8 5 3 8 5 W 0,0
19.09.2018 00:00:00 17,6 15,3 7 4 11 6 W 0,0
18.09.2018 23:00:00 18,3 15,7 5 3 11 6 W 0,0
18.09.2018 22:00:00 18,8 16,2 6 3 9 5 W 0,0
18.09.2018 21:00:00 19,6 15,9 5 3 10 5 W 0,0
18.09.2018 20:00:00 21,8 16,3 6 4 11 6 W -
18.09.2018 19:00:00 23,2 15,3 3 2 8 4 WNW 0,0
18.09.2018 18:00:00 24,1 15,1 4 2 12 6 W 0,0
18.09.2018 17:00:00 24,0 15,5 4 2 15 8 W 0,0
18.09.2018 16:00:00 26,0 17,1 6 3 15 8 W 0,0
18.09.2018 15:00:00 24,4 16,6 4 2 11 6 E 0,0
18.09.2018 14:00:00 23,2 17,0 3 2 11 6 WSW -
18.09.2018 13:00:00 23,5 17,1 4 2 17 9 ENE 0,0
18.09.2018 12:00:00 23,5 17,1 8 5 15 8 E 0,0
18.09.2018 11:00:00 22,4 17,1 5 3 11 6 E 0,0
18.09.2018 10:00:00 20,9 17,1 2 1 8 4 NW 0,0
18.09.2018 09:00:00 17,0 15,9 5 3 8 4 W 0,0
18.09.2018 08:00:00 15,7 14,6 5 3 8 4 W -
18.09.2018 07:00:00 15,7 14,6 5 3 8 5 W 0,0
18.09.2018 06:00:00 16,1 15,0 4 2 8 5 W 0,0
18.09.2018 05:00:00 16,3 15,0 5 3 9 5 W 0,0
18.09.2018 04:00:00 16,6 15,3 6 3 9 5 W 0,0
18.09.2018 03:00:00 17,1 15,6 6 4 10 6 W 0,0
18.09.2018 02:00:00 17,2 15,7 5 3 8 5 W -
18.09.2018 01:00:00 18,2 16,1 5 3 8 4 W 0,0
18.09.2018 00:00:00 18,7 16,6 3 2 8 4 W 0,0
17.09.2018 23:00:00 18,8 16,8 4 2 10 5 W 0,0
17.09.2018 22:00:00 18,4 16,2 5 3 9 5 W 0,0
17.09.2018 21:00:00 20,2 16,6 4 2 8 4 W 0,0
17.09.2018 20:00:00 22,2 16,9 3 1 9 5 NW -
17.09.2018 19:00:00 22,6 18,2 6 3 16 9 W 0,0
17.09.2018 18:00:00 24,3 16,3 1 1 9 5 E 0,0
17.09.2018 17:00:00 24,3 16,3 5 3 14 7 ENE 0,0
17.09.2018 16:00:00 25,2 16,0 3 2 16 9 ENE 0,0
17.09.2018 15:00:00 25,9 16,7 8 5 23 12 ENE 0,0
17.09.2018 14:00:00 24,0 16,0 9 5 24 13 ENE -
17.09.2018 13:00:00 23,4 16,2 6 3 25 14 NE 0,0
17.09.2018 12:00:00 23,1 16,6 8 4 27 14 NE 0,0
17.09.2018 11:00:00 22,4 16,2 4 2 23 12 S 0,0
17.09.2018 10:00:00 20,5 16,6 5 3 17 9 E 0,0
17.09.2018 09:00:00 17,3 14,6 3 2 14 7 SSW 0,0
17.09.2018 08:00:00 16,1 12,8 5 3 13 7 W -
17.09.2018 07:00:00 16,7 13,8 6 4 14 7 W 0,0
17.09.2018 06:00:00 18,5 14,8 1 0 19 10 NE 0,0
17.09.2018 05:00:00 19,0 14,9 4 2 24 13 E 0,0
17.09.2018 04:00:00 19,2 14,9 9 5 21 12 NE 0,0
17.09.2018 03:00:00 19,3 14,5 5 3 23 12 NE 0,0
17.09.2018 02:00:00 19,8 14,6 7 4 21 11 E -
17.09.2018 01:00:00 19,9 14,5 9 5 31 17 ENE 0,0
17.09.2018 00:00:00 20,4 14,0 9 5 22 12 E 0,0
16.09.2018 23:00:00 20,2 13,7 8 4 28 15 E 0,0

tt = temperature
td = dewpoint
ff = wind speed
fx = gusts
dd = wind direction
rr = precipitation

Next stations